Latest Weather Observations for Cape Moreton

IDQ60801

Issued at 7:32 pm EST Monday 23 October 2017 (issued every 30 minutes, with the page automatically refreshed every 10 minutes)

About weather observations | Map of weather stations | Latest weather observations for QLD | Other Formats
Station Details ID: 040043 Name: CAPE MORETON LIGHTHOUSE Lat: -27.03 Lon: 153.47 Height: 99.9 m
Data from the previous 72 hours. | See also: Recent months at Cape Moreton
Date/Time
EST
Temp
°C
App
Temp
°C
Dew
Point
°C
Rel
Hum
%
Delta-T
°C
Wind Press
QNH
hPa
Press
MSL
hPa
Rain since
9am
mm
Dir  Spd
km/h
Gust
km/h
Spd
kts
Gust
kts
23/07:30pm 19.2 18.2 14.7 75 2.6 E 13 19 7 10 1018.0 1017.7 0.0
23/07:00pm 19.5 16.6 15.0 75 2.6 E 24 30 13 16 1017.6 1017.3 0.0
23/06:30pm 19.6 17.8 16.1 80 2.1 ESE 20 30 11 16 1016.6 1016.2 0.0
23/06:00pm 19.2 17.9 15.9 81 2.0 SE 17 20 9 11 1016.4 1016.0 0.0
23/05:30pm 19.5 18.4 15.4 77 2.4 S 15 19 8 10 1016.3 1015.9 0.0
23/05:00pm 20.1 20.3 16.7 81 2.1 SW 11 15 6 8 1016.3 1015.9 0.0
23/04:30pm 20.1 19.9 15.7 76 2.6 SSW 11 15 6 8 1016.3 1015.9 0.0
23/04:00pm 20.9 20.2 16.5 76 2.7 SSE 15 20 8 11 1015.8 1015.4 0.0
23/03:30pm 22.0 22.1 16.5 71 3.4 SE 11 15 6 8 1015.6 1015.2 0.0
23/03:00pm 21.7 21.3 16.2 71 3.3 SE 13 17 7 9 1015.4 1015.0 0.0
23/02:30pm 21.2 21.1 16.0 72 3.1 ESE 11 15 6 8 1015.3 1014.9 0.0
23/02:00pm 21.3 21.8 15.6 70 3.4 E 7 13 4 7 1015.4 1015.0 0.0
23/01:30pm 21.8 22.6 16.3 71 3.3 ENE 7 9 4 5 1015.3 1014.9 0.0
23/01:00pm 22.7 23.0 16.9 70 3.6 NNE 11 17 6 9 1015.6 1015.2 0.0
23/12:30pm 21.7 22.1 15.3 67 3.8 N 7 9 4 5 1015.6 1015.2 0.0
23/12:00pm 22.1 21.7 14.2 61 4.6 E 9 13 5 7 1015.6 1015.2 0.0
23/11:30am 22.2 21.7 16.0 68 3.8 SE 13 17 7 9 1015.9 1015.5 0.0
23/11:00am 21.8 21.9 16.5 72 3.2 SE 11 15 6 8 1016.1 1015.7 0.0
23/10:30am 20.9 20.5 16.1 74 2.9 ESE 13 22 7 12 1016.6 1016.2 0.0
23/10:00am 20.5 21.0 15.5 73 3.0 NW 7 13 4 7 1016.8 1016.5 0.0
23/09:30am 21.5 21.6 17.5 78 2.5 NE 13 17 7 9 1016.7 1016.4 0.0
23/09:00am 21.0 20.8 16.6 76 2.7 ENE 13 17 7 9 1016.6 1016.2 2.2
23/08:30am 18.9 17.8 15.4 80 2.1 ENE 15 19 8 10 1016.1 1015.7 2.2
23/08:00am 17.3 14.3 14.9 86 1.4 ENE 24 28 13 15 1015.8 1015.4 2.2
23/07:30am 17.8 16.3 15.2 85 1.5 NE 17 19 9 10 1015.1 1014.7 1.8
23/07:00am 17.1 15.3 16.0 93 0.7 SW 20 28 11 15 1015.5 1015.1 0.2
23/06:30am 19.9 17.1 14.3 70 3.3 SE 22 28 12 15 1014.8 1014.4 0.0
23/06:00am 20.1 17.5 14.9 72 3.1 ESE 22 28 12 15 1014.2 1013.8 0.0
23/05:30am 19.8 17.6 14.4 71 3.1 ESE 19 22 10 12 1014.1 1013.7 0.0
23/05:00am 19.5 17.3 14.5 73 2.9 ESE 19 22 10 12 1013.8 1013.4 0.0
23/04:30am 19.5 17.7 14.5 73 2.9 ESE 17 20 9 11 1013.7 1013.3 0.0
23/04:00am 19.3 17.6 14.6 74 2.7 ESE 17 20 9 11 1013.4 1013.0 0.0
23/03:30am 19.3 17.6 14.8 75 2.6 ESE 17 26 9 14 1013.1 1012.7 0.0
23/03:00am 19.2 17.1 14.7 75 2.6 ESE 19 22 10 12 1012.9 1012.5 0.0
23/02:30am 19.3 17.6 14.8 75 2.6 ESE 17 20 9 11 1013.1 1012.7 0.0
23/02:00am 19.5 17.5 15.0 75 2.6 ESE 19 24 10 13 1013.3 1012.9 0.0
23/01:30am 19.4 17.1 14.6 74 2.8 ESE 20 28 11 15 1013.6 1013.2 0.0
23/01:00am 19.4 16.5 15.1 76 2.5 ESE 24 30 13 16 1013.9 1013.5 0.0
23/12:30am 19.6 16.4 15.3 76 2.5 ESE 26 32 14 17 1013.8 1013.4 0.0
23/12:00am 19.8 17.1 15.7 77 2.4 ESE 24 28 13 15 1014.0 1013.6 0.0
 
Date/Time
EST
Temp
°C
App
Temp
°C
Dew
Point
°C
Rel
Hum
%
Delta-T
°C
Wind Press
QNH
hPa
Press
MSL
hPa
Rain since
9am
mm
Dir  Spd
km/h
Gust
km/h
Spd
kts
Gust
kts
22/11:30pm 19.5 18.5 15.6 78 2.3 ESE 15 22 8 12 1014.4 1014.0 0.0
22/11:00pm 19.5 17.5 15.4 77 2.4 E 20 24 11 13 1014.4 1014.0 0.0
22/10:30pm 19.4 17.0 15.3 77 2.4 E 22 28 12 15 1014.4 1014.0 0.0
22/10:00pm 19.3 16.3 14.8 75 2.6 E 24 28 13 15 1014.4 1014.0 0.0
22/09:30pm 19.4 16.7 15.5 78 2.3 ESE 24 30 13 16 1014.5 1014.1 0.0
22/09:00pm 19.2 16.8 15.3 78 2.3 ESE 22 28 12 15 1014.6 1014.2 0.0
22/08:30pm 19.4 16.7 15.5 78 2.3 ESE 24 32 13 17 1014.2 1013.8 0.0
22/08:00pm 19.4 15.9 15.5 78 2.3 ESE 28 33 15 18 1013.8 1013.4 0.0
22/07:30pm 19.5 16.2 16.0 80 2.1 ESE 28 33 15 18 1013.4 1013.0 0.0
22/07:00pm 19.5 15.5 16.2 81 2.0 ESE 32 39 17 21 1013.0 1012.6 0.0
22/06:30pm 19.6 15.4 16.3 81 2.0 ESE 33 41 18 22 1012.4 1012.1 0.0
22/06:00pm 19.6 14.8 15.7 78 2.3 ESE 35 41 19 22 1012.0 1011.7 0.0
22/05:30pm 19.9 15.4 15.5 76 2.6 ESE 33 39 18 21 1011.7 1011.4 0.0
22/05:00pm 20.3 15.7 16.1 77 2.5 ESE 35 39 19 21 1011.5 1011.2 0.0
22/04:30pm 20.6 16.2 16.6 78 2.4 ESE 35 41 19 22 1011.2 1010.9 0.0
22/04:00pm 20.9 16.8 16.5 76 2.7 ESE 33 39 18 21 1011.1 1010.8 0.0
22/03:30pm 21.0 16.6 15.1 69 3.5 ESE 32 39 17 21 1010.9 1010.6 0.0
22/03:00pm 21.1 17.2 15.6 71 3.3 ESE 30 35 16 19 1010.9 1010.6 0.0
22/02:30pm 21.4 17.5 15.5 69 3.5 SE 30 35 16 19 1011.2 1010.9 0.0
22/02:00pm 21.5 17.7 15.8 70 3.4 SE 30 35 16 19 1011.3 1011.0 0.0
22/01:30pm 21.6 17.4 15.7 69 3.5 SE 32 37 17 20 1011.5 1011.2 0.0
22/01:00pm 21.6 17.8 15.7 69 3.5 SE 30 39 16 21 1011.7 1011.4 0.0
22/12:30pm 21.5 17.2 15.3 68 3.7 SE 32 35 17 19 1012.4 1012.1 0.0
22/12:00pm 21.6 17.8 15.7 69 3.5 SE 30 37 16 20 1012.3 1012.0 0.0
22/11:30am 21.0 17.0 15.1 69 3.5 SE 30 35 16 19 1012.5 1012.2 0.0
22/11:00am 20.8 17.0 14.7 68 3.6 SE 28 35 15 19 1012.7 1012.3 0.0
22/10:30am 21.1 18.3 15.4 70 3.4 SE 24 30 13 16 1013.0 1012.6 0.0
22/10:00am 20.4 17.5 14.1 67 3.7 SSE 22 32 12 17 1013.2 1012.8 0.0
22/09:30am 20.3 16.8 14.4 69 3.4 SSE 26 35 14 19 1013.2 1012.8 0.0
22/09:00am 20.1 17.4 14.5 70 3.3 S 22 32 12 17 1013.5 1013.1 13.4
22/08:30am 19.3 15.6 13.9 71 3.1 S 26 33 14 18 1013.4 1013.0 13.4
22/08:00am 18.7 14.7 14.2 75 2.6 SSW 28 35 15 19 1013.3 1012.9 13.4
22/07:30am 18.2 13.8 14.1 77 2.4 SSW 30 39 16 21 1013.0 1012.6 13.4
22/07:00am 17.8 14.2 14.3 80 2.0 SSW 26 35 14 19 1012.9 1012.5 13.4
22/06:30am 16.8 13.7 13.3 80 2.0 SW 22 30 12 16 1012.7 1012.3 13.2
22/06:00am 16.3 13.3 13.6 84 1.5 SSW 22 32 12 17 1012.4 1012.1 13.2
22/05:30am 15.8 12.4 13.6 87 1.2 SSW 24 32 13 17 1012.2 1011.9 13.2
22/05:00am 15.4 12.7 13.4 88 1.1 SSW 20 28 11 15 1012.1 1011.8 13.2
22/04:30am 15.5 12.0 13.5 88 1.1 SW 24 32 13 17 1012.0 1011.7 13.2
22/04:00am 15.5 11.7 13.7 89 1.0 SSW 26 37 14 20 1011.8 1011.5 13.2
22/03:30am 15.2 12.0 14.2 94 0.6 SW 24 32 13 17 1011.8 1011.5 13.2
22/03:00am 15.1 11.9 14.3 95 0.5 SW 24 30 13 16 1011.8 1011.5 13.2
22/02:30am 15.2 11.6 14.2 94 0.6 SW 26 35 14 19 1012.0 1011.7 13.2
22/02:00am 15.2 12.1 14.6 96 0.3 SW 24 30 13 16 1012.3 1012.0 13.2
22/01:30am 15.2 12.5 14.7 97 0.3 SW 22 28 12 15 1012.8 1012.4 13.2
22/01:00am 15.3 13.1 14.8 97 0.3 SW 20 26 11 14 1013.2 1012.8 13.2
22/12:30am 15.6 12.5 14.5 93 0.6 SW 24 32 13 17 1013.4 1013.0 13.2
22/12:00am 15.8 13.1 14.7 93 0.6 SSW 22 30 12 16 1013.8 1013.4 13.2
 
Date/Time
EST
Temp
°C
App
Temp
°C
Dew
Point
°C
Rel
Hum
%
Delta-T
°C
Wind Press
QNH
hPa
Press
MSL
hPa
Rain since
9am
mm
Dir  Spd
km/h
Gust
km/h
Spd
kts
Gust
kts
21/11:30pm 16.1 13.2 15.1 94 0.6 SSW 24 33 13 18 1013.8 1013.4 13.2
21/11:00pm 15.9 13.9 15.6 98 0.2 SW 20 28 11 15 1014.0 1013.6 13.2
21/10:30pm 16.0 13.6 15.5 97 0.3 SW 22 32 12 17 1014.3 1013.9 13.2
21/10:00pm 16.1 13.5 15.9 99 0.1 SW 24 33 13 18 1014.6 1014.2 13.2
21/09:30pm 16.3 13.3 15.8 97 0.3 SSW 26 39 14 21 1014.9 1014.5 13.2
21/09:00pm 16.4 13.2 16.2 99 0.1 S 28 39 15 21 1014.3 1013.9 13.2
21/08:30pm 16.3 13.0 16.1 99 0.1 S 28 41 15 22 1014.7 1014.3 13.2
21/08:00pm 16.3 13.0 16.1 99 0.1 S 28 43 15 23 1014.5 1014.1 13.2
21/07:30pm 17.2 12.9 17.0 99 0.1 SSE 35 50 19 27 1014.6 1014.2 13.2
21/07:00pm 16.9 11.8 16.9 100 0.0 SSE 39 50 21 27 1014.2 1013.8 13.0
21/06:30pm 16.6 11.0 16.6 100 0.0 SE 41 52 22 28 1013.8 1013.4 12.8
21/06:21pm 16.3 11.8 16.3 100 0.0 SE 35 46 19 25 1013.5 1013.1 12.8
21/06:00pm 16.5 12.6 16.5 100 0.0 S 32 43 17 23 1014.0 1013.6 11.4
21/05:30pm 16.5 11.2 16.3 99 0.1 S 39 50 21 27 1013.5 1013.1 10.4
21/05:00pm 16.6 9.6 16.4 99 0.1 SSE 48 59 26 32 1013.1 1012.7 10.2
21/04:30pm 16.6 10.4 16.4 99 0.1 SSE 44 59 24 32 1012.9 1012.5 10.2
21/04:00pm 16.5 10.9 16.5 100 0.0 S 41 54 22 29 1013.2 1012.8 9.6
21/03:30pm 16.6 10.6 16.4 99 0.1 S 43 61 23 33 1013.1 1012.7 8.8
21/03:00pm 17.4 12.1 17.2 99 0.1 SSE 41 59 22 32 1013.0 1012.6 8.2
21/02:30pm 17.7 12.5 17.4 98 0.2 SSE 41 57 22 31 1013.1 1012.7 8.2
21/02:03pm 17.4 11.7 17.2 99 0.1 SSE 43 61 23 33 1013.2 1012.8 8.0
21/02:00pm 17.8 12.3 17.6 99 0.1 SSE 43 56 23 30 1013.5 1013.1 8.0
21/01:30pm 17.9 12.8 17.7 99 0.1 SSE 41 52 22 28 1014.1 1013.7 7.8
21/01:18pm 17.6 12.0 17.4 99 0.1 SSE 43 61 23 33 1013.7 1013.3 7.6
21/01:00pm 18.0 12.5 17.7 98 0.2 SSE 43 54 23 29 1014.1 1013.7 7.6
21/12:41pm 17.7 13.7 17.5 99 0.1 SSE 35 54 19 29 1014.5 1014.1 7.6
21/12:30pm 17.7 13.7 17.5 99 0.1 SSE 35 48 19 26 1014.6 1014.2 7.6
21/12:00pm 18.2 17.4 18.0 99 0.1 SSW 19 32 10 17 1015.1 1014.7 6.2
21/11:30am 18.8 18.1 18.6 99 0.1 S 20 32 11 17 1015.5 1015.1 2.8
21/11:00am 19.1 19.5 19.1 100 0.0 SSW 15 20 8 11 1015.9 1015.5 2.8
21/10:30am 18.6 18.4 18.4 99 0.1 S 17 24 9 13 1016.2 1015.8 1.8
21/10:00am 19.1 19.1 18.9 99 0.1 S 17 22 9 12 1016.1 1015.7 1.2
21/09:30am 19.3 19.6 18.8 97 0.3 SSW 15 19 8 10 1015.9 1015.5 0.6
21/09:00am 19.5 20.5 18.7 95 0.5 SW 11 17 6 9 1015.8 1015.4 0.4
21/08:30am 19.7 20.0 17.8 89 1.2 WSW 13 17 7 9 1015.9 1015.5 0.0
21/08:00am 20.4 20.3 17.0 81 2.1 W 13 17 7 9 1016.1 1015.7 0.0
21/07:30am 20.5 19.6 16.9 80 2.2 W 17 20 9 11 1016.0 1015.6 0.0
21/07:00am 20.6 19.9 17.4 82 2.0 W 17 22 9 12 1015.9 1015.5 0.0
21/06:30am 20.2 19.9 17.4 84 1.7 WNW 15 19 8 10 1015.8 1015.4 0.0
21/06:00am 19.9 19.8 17.9 88 1.2 WNW 15 19 8 10 1015.6 1015.2 0.0
21/05:30am 19.1 18.6 17.9 93 0.7 W 17 20 9 11 1015.4 1015.0 0.0
21/05:00am 19.9 19.3 17.5 86 1.5 W 17 22 9 12 1015.2 1014.8 0.0
21/04:30am 20.2 20.5 18.0 87 1.4 WNW 13 17 7 9 1014.9 1014.5 0.0
21/04:00am 20.4 20.7 17.8 85 1.6 WNW 13 17 7 9 1015.1 1014.7 0.0
21/03:30am 20.6 20.6 18.2 86 1.5 WNW 15 22 8 12 1015.1 1014.7 0.0
21/03:00am 20.7 20.9 18.5 87 1.4 NW 15 24 8 13 1014.8 1014.4 0.0
21/02:30am 20.6 21.1 18.4 87 1.4 NNW 13 20 7 11 1014.8 1014.4 0.0
21/02:00am 21.1 19.4 17.3 79 2.3 NNW 22 28 12 15 1015.4 1015.0 0.0
21/01:30am 21.3 19.9 17.9 81 2.1 NNW 22 28 12 15 1015.7 1015.3 0.0
21/01:00am 21.2 18.7 17.2 78 2.5 N 26 32 14 17 1016.1 1015.7 0.0
21/12:30am 21.2 18.5 17.6 80 2.2 N 28 35 15 19 1016.3 1015.9 0.0
21/12:00am 20.9 19.9 17.9 83 1.9 N 20 28 11 15 1016.7 1016.4 0.0
 
Date/Time
EST
Temp
°C
App
Temp
°C
Dew
Point
°C
Rel
Hum
%
Delta-T
°C
Wind Press
QNH
hPa
Press
MSL
hPa
Rain since
9am
mm
Dir  Spd
km/h
Gust
km/h
Spd
kts
Gust
kts
20/11:30pm 21.0 19.5 17.8 82 2.0 N 22 30 12 16 1017.1 1016.8 0.0
20/11:00pm 21.3 19.3 17.3 78 2.5 N 24 32 13 17 1017.5 1017.2 0.0
20/10:30pm 21.3 19.8 16.7 75 2.8 N 20 28 11 15 1017.7 1017.4 0.0
20/10:00pm 21.2 19.0 16.0 72 3.1 N 22 28 12 15 1017.8 1017.5 0.0
20/09:30pm 21.2 19.2 16.4 74 2.9 N 22 30 12 16 1017.9 1017.6 0.0
20/09:00pm 21.2 19.1 17.2 78 2.5 NNE 24 30 13 16 1018.0 1017.7 0.0
20/08:30pm 21.2 19.5 17.2 78 2.5 NNE 22 28 12 15 1018.1 1017.8 0.0
20/08:00pm 21.0 18.9 16.2 74 2.9 NNE 22 30 12 16 1018.0 1017.7 0.0

Other Formats:

Comma delimited format used in spreadsheet applications
http://www.bom.gov.au/fwo/IDQ60801/IDQ60801.94594.axf

JavaScript Object Notation format (JSON) in row-major order
http://www.bom.gov.au/fwo/IDQ60801/IDQ60801.94594.json